Time;durP1;ratioP1;P1;durP2;ratioP2;P2;SDS_P1;SDS_P2;PMS_P1;PMS_P2;Temp;Humidity;BMP_temperature;BMP_pressure;BME280_temperature;BME280_humidity;BME280_pressure;Samples;Min_cycle;Max_cycle;Signal;HPM_P1;HPM_P2
2023/08/30 00:00:59;;;;;;;1.60;1.50;;;;;;;25.33;68.94;96797.34;5029488;28;20297;-29
2023/08/30 00:03:26;;;;;;;1.90;1.70;;;;;;;25.34;69.13;96798.19;5048814;28;20209;-28
2023/08/30 00:05:53;;;;;;;4.20;2.00;;;;;;;25.34;69.13;96793.06;5019992;28;20240;-28
2023/08/30 00:08:19;;;;;;;2.97;1.70;;;;;;;25.34;68.98;96790.47;5029362;28;20712;-29
2023/08/30 00:10:46;;;;;;;2.27;1.63;;;;;;;25.33;68.87;96797.34;5013667;28;20291;-29
2023/08/30 00:13:12;;;;;;;2.40;1.53;;;;;;;25.32;69.00;96790.47;5023075;28;20205;-28
2023/08/30 00:15:39;;;;;;;2.63;1.80;;;;;;;25.34;68.81;96793.06;5028107;28;20297;-27
2023/08/30 00:18:05;;;;;;;1.90;1.37;;;;;;;25.34;68.83;96795.63;5034053;28;20739;-28
2023/08/30 00:20:33;;;;;;;2.00;1.43;;;;;;;25.33;68.71;96801.59;5034115;28;20229;-28
2023/08/30 00:23:00;;;;;;;1.83;1.60;;;;;;;25.33;68.99;96796.47;5031431;28;20202;-28
2023/08/30 00:25:27;;;;;;;1.77;1.47;;;;;;;25.34;69.01;96805.91;5029554;28;20255;-28
2023/08/30 00:27:54;;;;;;;2.00;1.57;;;;;;;25.33;68.98;96794.75;5026080;28;20201;-28
2023/08/30 00:30:20;;;;;;;2.77;1.60;;;;;;;25.33;68.81;96799.91;5036609;22;20273;-33
2023/08/30 00:32:47;;;;;;;2.03;1.70;;;;;;;25.33;69.15;96801.59;5013627;28;20285;-27
2023/08/30 00:35:13;;;;;;;2.57;1.53;;;;;;;25.33;69.18;96801.59;5008110;28;20206;-27
2023/08/30 00:37:40;;;;;;;1.77;1.67;;;;;;;25.32;69.11;96800.75;5013800;28;20269;-27
2023/08/30 00:40:07;;;;;;;2.27;1.40;;;;;;;25.33;68.91;96796.47;5014593;28;20221;-27
2023/08/30 00:42:34;;;;;;;2.17;1.77;;;;;;;25.32;69.00;96795.63;5014368;28;20241;-27
2023/08/30 00:45:00;;;;;;;1.47;1.30;;;;;;;25.32;68.83;96793.06;5014702;28;20308;-29
2023/08/30 00:47:27;;;;;;;3.60;1.60;;;;;;;25.30;68.95;96792.16;5008184;28;20214;-27
2023/08/30 00:49:53;;;;;;;5.23;1.60;;;;;;;25.34;69.16;96798.19;4976783;28;20215;-27
2023/08/30 00:52:20;;;;;;;2.10;1.50;;;;;;;25.23;69.13;96777.56;4997426;28;20622;-27
2023/08/30 00:54:46;;;;;;;2.50;1.80;;;;;;;25.34;68.81;96795.63;5012267;28;20254;-27
2023/08/30 00:57:13;;;;;;;2.60;1.50;;;;;;;25.31;69.06;96793.00;5014134;28;20748;-27
2023/08/30 00:59:40;;;;;;;1.67;1.40;;;;;;;25.30;69.09;96787.00;5009121;28;20253;-32
2023/08/30 01:02:06;;;;;;;3.77;1.80;;;;;;;25.33;68.98;96794.75;4993867;28;20717;-27
2023/08/30 01:04:33;;;;;;;1.70;1.47;;;;;;;25.32;68.95;96790.47;4996870;28;20218;-28
2023/08/30 01:06:59;;;;;;;1.87;1.50;;;;;;;25.34;68.59;96785.34;5011756;28;20689;-27
2023/08/30 01:09:26;;;;;;;3.73;1.63;;;;;;;25.34;68.89;96790.47;5005368;28;20219;-32
2023/08/30 01:12:01;;;;;;;2.27;1.60;;;;;;;25.33;68.83;96794.75;5008524;28;20198;-28
2023/08/30 01:14:45;;;;;;;1.60;1.30;;;;;;;25.33;68.66;96792.19;5014286;28;20201;-27
2023/08/30 01:17:14;;;;;;;3.07;1.57;;;;;;;25.31;68.93;96791.28;5003847;28;20234;-27
2023/08/30 01:19:55;;;;;;;1.90;1.30;;;;;;;25.34;68.93;96793.06;4998420;28;20227;-30
2023/08/30 01:22:37;;;;;;;2.93;1.67;;;;;;;25.35;68.92;96797.34;5010502;28;20236;-27
2023/08/30 01:25:34;;;;;;;1.40;1.30;;;;;;;25.34;68.89;96793.06;4997176;28;20257;-27
2023/08/30 01:28:03;;;;;;;2.87;1.60;;;;;;;25.32;68.75;96802.44;5008580;28;20202;-27
2023/08/30 01:30:29;;;;;;;2.90;1.40;;;;;;;25.34;68.99;96799.03;4995468;28;20229;-27
2023/08/30 01:32:56;;;;;;;2.03;1.40;;;;;;;25.35;68.73;96797.34;5003851;28;20198;-27
2023/08/30 01:35:23;;;;;;;3.83;1.57;;;;;;;25.35;68.97;96800.78;5002077;28;20217;-27
2023/08/30 01:37:49;;;;;;;1.67;1.47;;;;;;;25.36;69.09;96807.63;5007477;28;20202;-28
2023/08/30 01:40:16;;;;;;;1.83;1.40;;;;;;;25.35;68.90;96810.19;4981672;28;20269;-27
2023/08/30 01:42:44;;;;;;;1.87;1.37;;;;;;;25.34;68.81;96808.50;4993154;28;20200;-27
2023/08/30 01:45:13;;;;;;;1.50;1.40;;;;;;;25.33;68.99;96801.59;4987871;28;20218;-27
2023/08/30 01:47:41;;;;;;;2.80;1.57;;;;;;;25.35;68.82;96808.50;5004897;28;20564;-30
2023/08/30 01:50:08;;;;;;;2.70;1.80;;;;;;;25.34;69.14;96811.06;5009416;28;20241;-32
2023/08/30 01:52:35;;;;;;;1.40;1.27;;;;;;;25.32;69.15;96808.47;5007321;28;20238;-27
2023/08/30 01:55:02;;;;;;;1.97;1.50;;;;;;;25.33;69.00;96814.47;4986395;28;20724;-27
2023/08/30 01:57:28;;;;;;;1.33;1.20;;;;;;;25.33;69.14;96811.91;5011971;28;20202;-27
2023/08/30 01:59:55;;;;;;;2.50;1.57;;;;;;;25.28;69.10;96805.88;5006441;28;20259;-27
2023/08/30 02:02:22;;;;;;;1.50;1.40;;;;;;;25.32;69.05;96811.06;5006532;28;20294;-27
2023/08/30 02:04:48;;;;;;;3.50;1.60;;;;;;;25.32;69.06;96807.59;5005175;28;20284;-27
2023/08/30 02:07:17;;;;;;;1.77;1.47;;;;;;;25.31;69.48;96804.13;5002990;28;20634;-27
2023/08/30 02:10:03;;;;;;;1.47;1.37;;;;;;;25.31;69.16;96801.56;4990250;28;20649;-27
2023/08/30 02:12:34;;;;;;;1.97;1.40;;;;;;;25.31;69.43;96804.13;5002726;28;20202;-27
2023/08/30 02:15:01;;;;;;;1.57;1.37;;;;;;;25.32;69.45;96808.47;5010442;28;20597;-29
2023/08/30 02:17:27;;;;;;;5.17;1.30;;;;;;;25.31;69.67;96814.44;4983713;28;20286;-30
2023/08/30 02:19:54;;;;;;;2.10;1.30;;;;;;;25.33;69.62;96812.75;5010121;28;20232;-27
2023/08/30 02:22:21;;;;;;;2.20;1.40;;;;;;;25.33;69.46;96815.34;5004533;28;20660;-27
2023/08/30 02:24:47;;;;;;;2.80;1.47;;;;;;;25.33;69.58;96811.91;5013295;28;20202;-27
2023/08/30 02:27:14;;;;;;;1.87;1.50;;;;;;;25.33;69.33;96806.75;5006975;28;20252;-27
2023/08/30 02:29:40;;;;;;;1.50;1.40;;;;;;;25.33;69.38;96806.75;5007188;28;20292;-28
2023/08/30 02:32:07;;;;;;;1.40;1.30;;;;;;;25.33;69.69;96805.03;4995237;28;20666;-30
2023/08/30 02:34:35;;;;;;;2.53;1.57;;;;;;;25.33;69.42;96807.63;5010219;28;20289;-30
2023/08/30 02:37:02;;;;;;;1.87;1.40;;;;;;;25.34;69.26;96805.91;5008939;28;20248;-30
2023/08/30 02:39:28;;;;;;;1.37;1.27;;;;;;;25.34;69.37;96805.91;4997023;28;20250;-28
2023/08/30 02:41:55;;;;;;;1.50;1.33;;;;;;;25.34;69.65;96803.34;5010883;28;20280;-29
2023/08/30 02:44:21;;;;;;;2.30;1.60;;;;;;;25.33;69.62;96807.63;5001443;28;20253;-28
2023/08/30 02:46:48;;;;;;;4.53;1.43;;;;;;;25.35;69.43;96807.63;5003306;28;20199;-27
2023/08/30 02:49:14;;;;;;;2.23;1.50;;;;;;;25.34;69.36;96806.75;4995656;28;20269;-29
2023/08/30 02:51:41;;;;;;;1.87;1.50;;;;;;;25.34;69.70;96793.06;5004277;28;20554;-27
2023/08/30 02:54:08;;;;;;;2.10;1.33;;;;;;;25.35;69.75;96794.75;5004370;28;20202;-30
2023/08/30 02:56:35;;;;;;;1.53;1.40;;;;;;;25.35;69.36;96795.63;5002730;28;20213;-27
2023/08/30 02:59:01;;;;;;;2.50;1.40;;;;;;;25.37;69.34;96800.78;5005111;28;20301;-28
2023/08/30 03:01:28;;;;;;;1.60;1.30;;;;;;;25.35;69.43;96792.19;5001249;28;20214;-27
2023/08/30 03:03:54;;;;;;;1.50;1.40;;;;;;;25.35;69.56;96794.75;5000442;28;20250;-27
2023/08/30 03:06:21;;;;;;;1.87;1.50;;;;;;;25.35;69.41;96795.63;5009667;28;20234;-27
2023/08/30 03:08:47;;;;;;;2.20;1.70;;;;;;;25.35;69.62;96792.19;4998417;28;20195;-27
2023/08/30 03:11:14;;;;;;;1.67;1.40;;;;;;;25.37;69.25;96800.78;5008663;28;20708;-27
2023/08/30 03:13:40;;;;;;;2.60;1.60;;;;;;;25.36;69.44;96788.75;5010138;28;20265;-33
2023/08/30 03:16:14;;;;;;;1.87;1.30;;;;;;;25.36;69.47;96792.19;5008850;28;20498;-27
2023/08/30 03:18:41;;;;;;;2.23;1.30;;;;;;;25.36;69.25;96797.34;5009765;28;20611;-27
2023/08/30 03:21:07;;;;;;;1.87;1.43;;;;;;;25.37;69.28;96793.06;5002100;28;20285;-27
2023/08/30 03:23:35;;;;;;;1.43;1.33;;;;;;;25.37;69.61;96793.06;4998445;28;20631;-30
2023/08/30 03:26:11;;;;;;;1.40;1.30;;;;;;;25.38;69.37;96787.91;5001815;28;20286;-27
2023/08/30 03:28:38;;;;;;;1.60;1.50;;;;;;;25.36;69.53;96781.03;5008696;28;20244;-32
2023/08/30 03:31:14;;;;;;;2.70;1.23;;;;;;;25.38;69.65;96787.06;4993920;28;20218;-27
2023/08/30 03:33:41;;;;;;;1.90;1.50;;;;;;;25.37;69.50;96788.75;4998696;28;20202;-33
2023/08/30 03:36:11;;;;;;;2.00;1.47;;;;;;;25.38;69.48;96792.19;5000630;28;20666;-33
2023/08/30 03:38:38;;;;;;;1.63;1.40;;;;;;;25.38;69.24;96797.34;5002400;28;20203;-27
2023/08/30 03:41:05;;;;;;;1.73;1.63;;;;;;;25.38;69.37;96798.22;4998295;28;20325;-28
2023/08/30 03:43:32;;;;;;;1.67;1.57;;;;;;;25.37;69.76;96796.47;5005803;28;20244;-27
2023/08/30 03:45:59;;;;;;;1.60;1.50;;;;;;;25.38;69.58;96789.63;5011039;28;20256;-27
2023/08/30 03:48:26;;;;;;;1.40;1.27;;;;;;;25.37;69.62;96790.50;5004435;28;20237;-27
2023/08/30 03:50:54;;;;;;;1.40;1.30;;;;;;;25.38;69.66;96797.34;5011201;28;20214;-28
2023/08/30 03:53:20;;;;;;;1.50;1.40;;;;;;;25.38;69.35;96793.06;5011408;28;20648;-27
2023/08/30 03:55:47;;;;;;;1.97;1.30;;;;;;;25.39;69.50;96805.06;5011539;28;20194;-27
2023/08/30 03:58:13;;;;;;;3.00;1.80;;;;;;;25.39;69.80;96799.91;5000533;28;20277;-29
2023/08/30 04:00:40;;;;;;;1.60;1.30;;;;;;;25.40;69.58;96795.66;5000308;28;20770;-28
2023/08/30 04:03:08;;;;;;;2.80;1.57;;;;;;;25.39;69.52;96802.50;5005235;28;20198;-27
2023/08/30 04:05:36;;;;;;;1.50;1.40;;;;;;;25.40;69.24;96798.22;5005187;28;20685;-27
2023/08/30 04:08:03;;;;;;;2.50;1.57;;;;;;;25.39;69.46;96799.91;5004224;28;20226;-27
2023/08/30 04:10:34;;;;;;;1.63;1.47;;;;;;;25.40;69.51;96806.78;4999613;28;20210;-27
2023/08/30 04:13:01;;;;;;;2.10;1.43;;;;;;;25.33;69.78;96786.16;5004694;28;20651;-27
2023/08/30 04:15:27;;;;;;;1.40;1.30;;;;;;;25.40;69.86;96796.47;5012423;28;20209;-27
2023/08/30 04:17:54;;;;;;;1.50;1.40;;;;;;;25.40;69.54;96801.63;5007801;28;20286;-27
2023/08/30 04:20:20;;;;;;;1.93;1.57;;;;;;;25.40;69.49;96799.06;4998744;28;20689;-28
2023/08/30 04:22:47;;;;;;;1.40;1.30;;;;;;;25.39;69.48;96797.34;4994178;28;20669;-27
2023/08/30 04:25:14;;;;;;;1.43;1.33;;;;;;;25.41;69.71;96800.78;5002775;28;20252;-27
2023/08/30 04:27:40;;;;;;;1.73;1.50;;;;;;;25.40;69.40;96804.19;5003649;28;20257;-27
2023/08/30 04:30:07;;;;;;;1.33;1.23;;;;;;;25.40;69.47;96801.63;5000285;28;20257;-28
2023/08/30 04:32:34;;;;;;;1.87;1.50;;;;;;;25.42;69.72;96804.19;5010880;28;20261;-27
2023/08/30 04:35:00;;;;;;;2.03;1.40;;;;;;;25.42;69.47;96793.91;5003594;28;20301;-28
2023/08/30 04:37:29;;;;;;;2.00;1.40;;;;;;;25.41;69.92;96805.94;5003161;28;20206;-30
2023/08/30 04:39:56;;;;;;;2.10;1.40;;;;;;;25.35;69.73;96787.91;5010025;28;20219;-27
2023/08/30 04:42:23;;;;;;;1.50;1.40;;;;;;;25.43;69.63;96804.22;5009525;28;20225;-27
2023/08/30 04:44:49;;;;;;;1.40;1.30;;;;;;;25.43;69.74;96809.34;5001277;28;20282;-29
2023/08/30 04:47:16;;;;;;;3.20;1.60;;;;;;;25.43;69.50;96806.78;5010235;28;20198;-30
2023/08/30 04:49:42;;;;;;;3.33;1.60;;;;;;;25.44;69.58;96811.09;4998861;28;20284;-30
2023/08/30 04:52:09;;;;;;;2.03;1.40;;;;;;;25.44;69.69;96807.66;5009975;28;20195;-27
2023/08/30 04:54:35;;;;;;;1.70;1.50;;;;;;;25.45;69.82;96802.50;5010140;28;20272;-27
2023/08/30 04:57:02;;;;;;;1.77;1.40;;;;;;;25.46;69.69;96803.38;5004432;28;20237;-27
2023/08/30 04:59:29;;;;;;;3.47;1.30;;;;;;;25.46;69.81;96804.22;4997511;28;20709;-27
2023/08/30 05:01:56;;;;;;;1.77;1.40;;;;;;;25.45;69.59;96807.66;5008542;28;20250;-29
2023/08/30 05:04:24;;;;;;;1.57;1.43;;;;;;;25.44;69.55;96807.66;5009796;28;20269;-29
2023/08/30 05:06:50;;;;;;;2.07;1.60;;;;;;;25.45;69.66;96809.34;5011908;28;20226;-36
2023/08/30 05:09:17;;;;;;;1.40;1.27;;;;;;;25.45;69.60;96809.34;5005299;28;20230;-28
2023/08/30 05:11:43;;;;;;;1.50;1.40;;;;;;;25.45;69.42;96812.78;5001590;28;20237;-27
2023/08/30 05:14:12;;;;;;;4.70;1.90;;;;;;;25.45;68.49;96804.22;5004191;28;20213;-27
2023/08/30 05:16:39;;;;;;;2.10;1.90;;;;;;;25.45;68.27;96809.34;5000571;28;20207;-27
2023/08/30 05:19:06;;;;;;;2.23;1.90;;;;;;;25.45;68.40;96814.50;5011356;28;20225;-28
2023/08/30 05:21:32;;;;;;;2.23;2.00;;;;;;;25.45;68.42;96809.34;5009778;28;20226;-27
2023/08/30 05:23:59;;;;;;;2.17;1.97;;;;;;;25.42;68.29;96797.34;5013905;28;20260;-27
2023/08/30 05:26:25;;;;;;;2.57;2.13;;;;;;;25.43;68.25;96806.78;5005036;28;20207;-27
2023/08/30 05:28:52;;;;;;;3.37;2.23;;;;;;;25.44;68.06;96802.50;5012994;28;20704;-27
2023/08/30 05:31:18;;;;;;;2.37;2.17;;;;;;;25.43;67.96;96811.91;5013514;28;20249;-28
2023/08/30 05:33:45;;;;;;;2.70;2.23;;;;;;;25.43;68.15;96811.91;5006276;28;20727;-27
2023/08/30 05:36:12;;;;;;;2.87;2.60;;;;;;;25.35;67.77;96795.63;5006330;28;20670;-28
2023/08/30 05:38:38;;;;;;;2.70;2.50;;;;;;;25.42;67.45;96805.06;5013691;28;20229;-27
2023/08/30 05:41:05;;;;;;;2.70;2.50;;;;;;;25.43;67.84;96808.50;5003772;28;20259;-27
2023/08/30 05:43:31;;;;;;;4.57;2.57;;;;;;;25.42;67.46;96801.63;5007044;28;20321;-27
2023/08/30 05:46:02;;;;;;;3.10;2.80;;;;;;;25.43;67.38;96806.78;5011156;28;20252;-27
2023/08/30 05:48:29;;;;;;;2.97;2.47;;;;;;;25.42;67.30;96805.06;5013769;28;20206;-27
2023/08/30 05:50:56;;;;;;;2.80;2.50;;;;;;;25.41;66.98;96805.94;5011898;28;20210;-27
2023/08/30 05:53:22;;;;;;;3.03;2.73;;;;;;;25.41;66.91;96812.78;5011738;28;20284;-28
2023/08/30 05:55:49;;;;;;;3.00;2.70;;;;;;;25.41;66.92;96807.63;5013646;28;20548;-27
2023/08/30 05:58:17;;;;;;;2.87;2.60;;;;;;;25.41;66.94;96810.22;5012475;28;20198;-27
2023/08/30 06:00:44;;;;;;;2.83;2.53;;;;;;;25.32;67.16;96803.34;5009991;28;20234;-30
2023/08/30 06:03:10;;;;;;;2.80;2.60;;;;;;;25.39;67.19;96814.47;5013049;28;20214;-27
2023/08/30 06:05:37;;;;;;;3.17;2.80;;;;;;;25.39;66.92;96817.06;5012399;28;20202;-28
2023/08/30 06:08:04;;;;;;;3.40;3.10;;;;;;;25.39;66.78;96815.34;5012404;28;20248;-28
2023/08/30 06:10:30;;;;;;;4.57;3.17;;;;;;;25.38;67.09;96820.50;5008649;28;20272;-27
2023/08/30 06:12:57;;;;;;;3.50;3.20;;;;;;;25.38;67.20;96823.06;5006007;28;20666;-29
2023/08/30 06:15:24;;;;;;;3.13;2.83;;;;;;;25.38;67.46;96820.50;5002152;28;20238;-29
2023/08/30 06:17:51;;;;;;;3.10;2.80;;;;;;;25.38;67.28;96817.91;5007305;28;20285;-27
2023/08/30 06:20:17;;;;;;;3.33;2.80;;;;;;;25.38;67.46;96825.63;5010862;28;20276;-31
2023/08/30 06:22:44;;;;;;;3.17;2.87;;;;;;;25.37;67.25;96817.06;5010514;28;20218;-27
2023/08/30 06:25:12;;;;;;;2.90;2.70;;;;;;;25.38;67.31;96817.91;5007496;28;20293;-31
2023/08/30 06:27:41;;;;;;;3.10;2.80;;;;;;;25.39;67.41;96814.47;5007142;28;20206;-27
2023/08/30 06:30:08;;;;;;;3.20;2.93;;;;;;;25.38;67.37;96829.09;5006037;28;20576;-27
2023/08/30 06:32:34;;;;;;;2.90;2.70;;;;;;;25.37;67.31;96819.63;5009243;28;20206;-29
2023/08/30 06:35:01;;;;;;;4.63;2.53;;;;;;;25.37;67.75;96819.63;5009584;28;20206;-33
2023/08/30 06:37:28;;;;;;;2.80;2.50;;;;;;;25.38;67.50;96815.34;5006131;28;20254;-28
2023/08/30 06:39:54;;;;;;;3.47;2.70;;;;;;;25.39;67.54;96822.19;5006079;28;20230;-27
2023/08/30 06:42:23;;;;;;;2.63;2.43;;;;;;;25.32;67.74;96808.47;5000850;28;20226;-28
2023/08/30 06:44:49;;;;;;;2.70;2.50;;;;;;;25.30;67.37;96801.56;5007982;28;20621;-27
2023/08/30 06:47:16;;;;;;;2.40;2.20;;;;;;;25.30;67.49;96799.84;5007694;28;20680;-27
2023/08/30 06:49:42;;;;;;;3.37;2.27;;;;;;;25.38;67.43;96818.78;5009112;28;20218;-30
2023/08/30 06:52:09;;;;;;;2.10;2.00;;;;;;;25.38;67.30;96817.91;5008359;28;20233;-29
2023/08/30 06:54:36;;;;;;;4.40;2.20;;;;;;;25.37;67.92;96822.19;5009769;28;20334;-27
2023/08/30 06:57:02;;;;;;;2.00;1.90;;;;;;;25.38;67.53;96817.91;5007015;28;20257;-27
2023/08/30 06:59:29;;;;;;;3.27;2.10;;;;;;;25.37;67.79;96823.94;5006398;28;20278;-28
2023/08/30 07:01:56;;;;;;;2.53;2.07;;;;;;;25.38;67.77;96817.91;5009756;28;20600;-30
2023/08/30 07:04:23;;;;;;;2.23;2.03;;;;;;;25.38;67.34;96811.06;5005426;28;20286;-27
2023/08/30 07:06:50;;;;;;;2.27;1.97;;;;;;;25.38;67.26;96820.50;5009806;28;20575;-30
2023/08/30 07:09:18;;;;;;;1.80;1.70;;;;;;;25.39;67.43;96814.47;5005873;28;20250;-28
2023/08/30 07:11:48;;;;;;;2.00;1.80;;;;;;;25.38;67.52;96811.06;5007086;28;20293;-28
2023/08/30 07:14:15;;;;;;;2.83;2.20;;;;;;;25.39;67.69;96801.63;5007536;28;20294;-27
2023/08/30 07:16:41;;;;;;;1.80;1.70;;;;;;;25.38;67.70;96802.50;5008597;28;20298;-29
2023/08/30 07:19:09;;;;;;;1.90;1.80;;;;;;;25.38;67.40;96805.94;5008914;28;20225;-29
2023/08/30 07:21:38;;;;;;;2.03;1.90;;;;;;;25.29;67.76;96790.44;5006122;28;20314;-29
2023/08/30 07:24:06;;;;;;;2.77;1.90;;;;;;;25.39;67.62;96810.22;5004763;28;20297;-27
2023/08/30 07:26:33;;;;;;;2.13;1.70;;;;;;;25.39;67.38;96809.34;5007138;28;20226;-27
2023/08/30 07:28:59;;;;;;;1.93;1.50;;;;;;;25.38;67.48;96818.78;5008813;28;20236;-27
2023/08/30 07:31:26;;;;;;;2.80;1.90;;;;;;;25.39;67.74;96809.34;5008705;28;20627;-30
2023/08/30 07:33:53;;;;;;;2.07;1.97;;;;;;;25.39;67.72;96812.78;5009483;28;20758;-27
2023/08/30 07:36:19;;;;;;;2.10;1.77;;;;;;;25.39;67.67;96811.91;5001149;28;20234;-27
2023/08/30 07:38:53;;;;;;;1.90;1.70;;;;;;;25.39;67.32;96811.91;5001991;28;20708;-27
2023/08/30 07:41:20;;;;;;;1.87;1.70;;;;;;;25.39;67.44;96811.91;5004112;28;20264;-27
2023/08/30 07:43:46;;;;;;;1.80;1.70;;;;;;;25.38;67.29;96815.34;5008848;28;20336;-27
2023/08/30 07:46:13;;;;;;;2.20;1.73;;;;;;;25.38;67.21;96815.34;5008749;28;20272;-30
2023/08/30 07:48:39;;;;;;;2.20;1.67;;;;;;;25.38;67.18;96812.78;5008904;28;20294;-30
2023/08/30 07:51:06;;;;;;;1.80;1.70;;;;;;;25.38;67.69;96811.06;5008573;28;20210;-27
2023/08/30 07:53:33;;;;;;;1.80;1.70;;;;;;;25.39;67.50;96814.47;5008792;28;20918;-30
2023/08/30 07:55:59;;;;;;;3.73;1.77;;;;;;;25.39;67.28;96814.47;5008881;28;20260;-36
2023/08/30 07:58:26;;;;;;;2.00;1.80;;;;;;;25.39;67.48;96814.47;5008525;28;20198;-28
2023/08/30 08:00:52;;;;;;;1.70;1.60;;;;;;;25.39;67.41;96817.06;5008732;28;20313;-28
2023/08/30 08:03:20;;;;;;;2.40;1.90;;;;;;;25.39;67.49;96815.34;5009051;28;20244;-27
2023/08/30 08:05:47;;;;;;;1.57;1.47;;;;;;;25.39;67.44;96811.91;5008730;28;20198;-29
2023/08/30 08:08:14;;;;;;;2.23;1.70;;;;;;;25.39;67.48;96810.22;5008722;28;20280;-27
2023/08/30 08:10:42;;;;;;;1.83;1.73;;;;;;;25.39;67.40;96812.78;5008233;28;20224;-27
2023/08/30 08:13:08;;;;;;;3.13;1.80;;;;;;;25.36;67.38;96807.63;5008442;28;20198;-30
2023/08/30 08:15:35;;;;;;;3.20;1.90;;;;;;;25.39;67.04;96810.22;5008879;28;20684;-27
2023/08/30 08:18:02;;;;;;;2.23;2.03;;;;;;;25.39;66.67;96812.78;5006195;28;20650;-29
2023/08/30 08:20:30;;;;;;;2.00;1.90;;;;;;;25.31;66.87;96796.41;5007334;28;20310;-27
2023/08/30 08:22:56;;;;;;;2.60;2.40;;;;;;;25.39;66.72;96806.75;5006902;28;20821;-27
2023/08/30 08:25:23;;;;;;;2.50;2.30;;;;;;;25.39;66.76;96801.63;5005788;28;20206;-28
2023/08/30 08:27:53;;;;;;;2.53;2.20;;;;;;;25.38;66.85;96808.50;5007785;28;20578;-27
2023/08/30 08:30:20;;;;;;;4.43;2.20;;;;;;;25.39;67.16;96809.34;5005359;28;20331;-28
2023/08/30 08:32:49;;;;;;;2.00;1.90;;;;;;;25.40;67.17;96813.66;5006969;28;20201;-27
2023/08/30 08:35:16;;;;;;;3.30;2.27;;;;;;;25.40;66.84;96817.06;5011017;28;20589;-27
2023/08/30 08:37:43;;;;;;;2.30;2.20;;;;;;;25.39;67.01;96811.91;5011962;28;20237;-28
2023/08/30 08:40:10;;;;;;;2.50;2.30;;;;;;;25.41;67.22;96810.22;5012131;28;20241;-31
2023/08/30 08:42:37;;;;;;;2.00;1.90;;;;;;;25.39;67.51;96812.78;5012360;28;20595;-27
2023/08/30 08:45:04;;;;;;;3.00;2.50;;;;;;;25.40;67.39;96821.38;5012563;28;20568;-30
2023/08/30 08:47:31;;;;;;;2.40;2.20;;;;;;;25.41;67.32;96820.50;5000641;28;20203;-29
2023/08/30 08:49:57;;;;;;;2.80;2.50;;;;;;;25.39;67.60;96820.50;5003694;28;20546;-29
2023/08/30 08:52:24;;;;;;;2.70;2.50;;;;;;;25.38;67.66;96816.22;5012310;28;20199;-27
2023/08/30 08:54:59;;;;;;;2.17;2.07;;;;;;;25.37;67.76;96818.78;5009363;28;20589;-32
2023/08/30 08:57:26;;;;;;;2.30;2.10;;;;;;;25.37;67.93;96809.34;5009996;28;20205;-29
2023/08/30 08:59:55;;;;;;;2.13;1.93;;;;;;;25.37;67.76;96816.22;5011531;28;20296;-27
2023/08/30 09:02:22;;;;;;;2.50;2.10;;;;;;;25.38;68.01;96817.91;5012048;28;20400;-27
2023/08/30 09:04:48;;;;;;;2.37;2.20;;;;;;;25.36;68.08;96812.78;4994127;28;20232;-34
2023/08/30 09:07:15;;;;;;;2.03;1.93;;;;;;;25.35;67.87;96807.63;5003986;28;20245;-28
2023/08/30 09:09:41;;;;;;;2.33;2.10;;;;;;;25.35;68.04;96813.63;5006542;28;20226;-30
2023/08/30 09:12:08;;;;;;;2.40;2.20;;;;;;;25.35;67.97;96812.78;5011407;28;20199;-28
2023/08/30 09:14:35;;;;;;;2.10;2.00;;;;;;;25.36;68.23;96814.47;5008241;28;20242;-31
2023/08/30 09:17:02;;;;;;;2.37;2.17;;;;;;;25.34;68.33;96811.06;5011958;28;20748;-27
2023/08/30 09:19:29;;;;;;;3.00;2.00;;;;;;;25.35;68.58;96818.78;5011866;28;20226;-27
2023/08/30 09:21:57;;;;;;;2.50;2.30;;;;;;;25.35;68.69;96810.19;5010911;28;20621;-27
2023/08/30 09:24:24;;;;;;;2.23;2.07;;;;;;;25.35;68.75;96812.78;5011611;28;20214;-27
2023/08/30 09:26:53;;;;;;;2.20;2.00;;;;;;;25.34;68.50;96813.63;5010841;28;20284;-27
2023/08/30 09:29:21;;;;;;;2.30;2.10;;;;;;;25.35;68.51;96823.94;5010504;28;20756;-30
2023/08/30 09:31:53;;;;;;;2.33;2.13;;;;;;;25.34;68.90;96814.47;5005563;28;20265;-31
2023/08/30 09:34:24;;;;;;;2.00;1.90;;;;;;;25.34;68.42;96811.91;5011188;28;20706;-28
2023/08/30 09:36:51;;;;;;;2.03;1.83;;;;;;;25.33;68.90;96799.91;5010824;28;20658;-28
2023/08/30 09:39:17;;;;;;;2.13;1.97;;;;;;;25.34;68.53;96800.78;5011087;28;20543;-27
2023/08/30 09:41:50;;;;;;;2.07;1.90;;;;;;;25.34;68.61;96799.03;5007563;28;20246;-31
2023/08/30 09:44:18;;;;;;;2.20;2.10;;;;;;;25.10;67.51;96762.94;5011626;28;20206;-27
2023/08/30 09:46:45;;;;;;;3.90;2.80;;;;;;;25.34;67.43;96790.47;5009113;28;20202;-33
2023/08/30 09:49:15;;;;;;;2.50;2.30;;;;;;;25.35;67.54;96794.75;5010938;28;20289;-28
2023/08/30 09:51:42;;;;;;;2.90;2.60;;;;;;;25.34;67.95;96788.75;5007810;28;20676;-30
2023/08/30 09:54:16;;;;;;;2.70;2.50;;;;;;;25.35;68.23;96789.63;5010483;28;20206;-27
2023/08/30 09:57:02;;;;;;;2.90;2.60;;;;;;;25.35;68.09;96785.34;5007142;28;20680;-28
2023/08/30 09:59:29;;;;;;;2.37;2.17;;;;;;;25.34;68.21;96790.47;5009237;28;20226;-27
2023/08/30 10:01:55;;;;;;;2.50;2.30;;;;;;;25.35;68.29;96793.06;5007655;28;20703;-28
2023/08/30 10:04:23;;;;;;;2.53;2.33;;;;;;;25.35;68.63;96790.50;4981607;28;20202;-31
2023/08/30 10:06:50;;;;;;;2.50;2.30;;;;;;;25.36;68.55;96789.63;5010264;28;20677;-27
2023/08/30 10:09:19;;;;;;;2.07;1.97;;;;;;;25.36;68.73;96784.47;5010586;28;20324;-27
2023/08/30 10:11:47;;;;;;;2.50;2.30;;;;;;;25.35;68.72;96769.91;5010180;28;20206;-28
2023/08/30 10:14:13;;;;;;;4.73;2.20;;;;;;;25.36;68.48;96775.88;5010290;28;20264;-31
2023/08/30 10:16:43;;;;;;;2.20;2.10;;;;;;;25.36;68.99;96768.16;5010013;28;20678;-28
2023/08/30 10:19:17;;;;;;;1.87;1.77;;;;;;;25.35;68.79;96762.19;5009970;28;20230;-28
2023/08/30 10:21:43;;;;;;;3.17;2.20;;;;;;;25.35;68.72;96769.91;5009994;28;20207;-28
2023/08/30 10:24:12;;;;;;;2.37;2.17;;;;;;;25.35;69.04;96767.34;5010051;28;20229;-28
2023/08/30 10:26:58;;;;;;;2.30;2.10;;;;;;;25.36;68.65;96773.31;5008757;28;20297;-33
2023/08/30 10:29:25;;;;;;;3.23;2.23;;;;;;;25.35;68.81;96766.47;5009863;28;20269;-32
2023/08/30 10:31:52;;;;;;;2.23;2.03;;;;;;;25.35;68.79;96766.47;5008989;28;20430;-27
2023/08/30 10:34:20;;;;;;;2.37;2.17;;;;;;;25.34;69.24;96760.44;5005763;28;20670;-30
2023/08/30 10:36:57;;;;;;;2.30;2.10;;;;;;;25.36;69.06;96763.03;5009710;28;20206;-28
2023/08/30 10:39:33;;;;;;;2.10;2.00;;;;;;;25.35;68.77;96771.59;5009446;28;20229;-27
2023/08/30 10:41:59;;;;;;;2.30;2.10;;;;;;;25.35;69.35;96771.59;5008878;28;20220;-30
2023/08/30 10:44:26;;;;;;;2.00;1.90;;;;;;;25.35;68.97;96772.47;5009827;28;20345;-28
2023/08/30 10:46:56;;;;;;;2.80;2.53;;;;;;;25.34;67.25;96764.75;5010389;28;20206;-27
2023/08/30 10:49:23;;;;;;;6.53;4.00;;;;;;;25.34;64.47;96764.75;5010078;28;20226;-32
2023/08/30 10:51:57;;;;;;;4.67;3.80;;;;;;;25.33;64.32;96758.75;5007973;28;20199;-34
2023/08/30 10:54:24;;;;;;;4.87;3.53;;;;;;;25.32;65.34;96762.19;5002902;28;20210;-33
2023/08/30 10:57:01;;;;;;;5.90;3.57;;;;;;;25.33;65.89;96763.03;5007085;28;20297;-27
2023/08/30 10:59:29;;;;;;;12.50;3.57;;;;;;;25.32;66.31;96757.03;5004373;28;20232;-29
2023/08/30 11:01:55;;;;;;;6.63;3.70;;;;;;;25.33;66.30;96757.88;5006951;28;20229;-30
2023/08/30 11:04:22;;;;;;;6.83;3.67;;;;;;;25.32;66.39;96754.47;5008249;28;20252;-28
2023/08/30 11:06:50;;;;;;;4.10;3.40;;;;;;;25.33;66.98;96760.44;5008481;28;20202;-30
2023/08/30 11:09:21;;;;;;;5.97;3.10;;;;;;;25.33;67.31;96755.31;5005223;28;20257;-29
2023/08/30 11:11:48;;;;;;;4.10;2.80;;;;;;;25.31;67.35;96749.28;5009107;28;20210;-32
2023/08/30 11:14:15;;;;;;;3.97;3.30;;;;;;;25.33;67.07;96763.88;5009060;28;20800;-27
2023/08/30 11:16:42;;;;;;;3.33;2.90;;;;;;;25.33;67.34;96752.72;5009532;28;20728;-30
2023/08/30 11:19:09;;;;;;;4.93;3.57;;;;;;;25.32;67.38;96759.63;5008694;28;20222;-32
2023/08/30 11:21:40;;;;;;;3.87;2.93;;;;;;;25.33;67.33;96758.75;5006439;28;20636;-36
2023/08/30 11:24:07;;;;;;;5.10;3.23;;;;;;;25.34;67.53;96757.03;5002224;28;20714;-31
2023/08/30 11:26:33;;;;;;;4.57;3.13;;;;;;;25.35;67.49;96758.75;5008774;28;20229;-27
2023/08/30 11:29:07;;;;;;;4.53;2.80;;;;;;;25.35;67.83;96751.03;5008836;28;20285;-27
2023/08/30 11:31:33;;;;;;;3.73;2.87;;;;;;;25.36;67.93;96748.47;5007131;28;20252;-29
2023/08/30 11:34:00;;;;;;;5.23;2.90;;;;;;;25.38;67.65;96745.91;5001342;28;20648;-29
2023/08/30 11:36:28;;;;;;;4.03;3.00;;;;;;;25.38;67.76;96745.91;5007418;28;20617;-29